Flight Track Log - Related Links

Times and Time Zones

All times are in EDT time to prevent confusion due to time zone crossing. See the SWA2975 flight status page for this flight to view local times or setup timezone preferences in your user account.

Time Position Orientation Groundspeed Altitude Reporting Facility
EDT Latitude Longitude Course Direction KTS MPH feet Rate Location/Type
11:02PM 41.7690 -87.7770 248° West 152 175 2,200  Level FlightAware
11:02PM 41.7680 -87.7860 262° West 165 190 2,400 800 Climbing FlightAware
11:03PM 41.7840 -87.8220 301° West 253 291 2,800 766 Climbing FlightAware
11:03PM 41.7980 -87.8300 337° Northwest 266 306 3,000 429 Climbing FlightAware
11:03PM 41.8180 -87.8300 360° North 259 298 3,000  Level FlightAware
11:03PM 41.8310 -87.8220 25° Northeast 251 289 3,000 429 Level FlightAware
11:04PM 41.8420 -87.8050 49° Northeast 250 288 3,200 1,000 Climbing FlightAware
11:04PM 41.8450 -87.7930 71° East 252 290 3,400 2,108 Climbing FlightAware
11:04PM 41.8490 -87.7450 84° East 275 316 4,500 1,714 Climbing FlightAware
11:05PM 41.8510 -87.7010 86° East 272 313 5,000 667 Climbing FlightAware
11:05PM 41.8530 -87.6690 85° East 282 325 5,000 -200 Level FlightAware
11:05PM 41.8540 -87.6480 86° East 284 327 4,900 286 Descending FlightAware
11:06PM 41.8570 -87.5950 86° East 288 331 5,200 1,385 Climbing FlightAware
11:06PM 41.8580 -87.5580 88° East 286 329 6,100 3,070 Climbing FlightAware
11:06PM 41.8550 -87.5220 96° East 282 325 7,400 3,600 Climbing FlightAware
11:07PM 41.8440 -87.4700 106° East 288 331 9,100 3,304 Climbing FlightAware
11:08PM 41.8300 -87.4000 105° East 299 344 11,200 3,185 Climbing FlightAware
11:08PM 41.8160 -87.3270 104° East 305 351 13,400 2,214 Climbing FlightAware
11:09PM 41.7980 -87.2420 106° East 359 413 14,300 1,773 Climbing FlightAware
11:10PM 41.7780 -87.1430 105° East 385 443 16,000 2,442 Climbing FlightAware
11:10PM 41.7630 -87.0400 101° East 399 459 17,800 2,530 Climbing FlightAware
11:11PM 41.7630 -86.9330 90° East 409 471 19,500 2,429 Climbing FlightAware
11:12PM 41.7650 -86.8260 89° East 416 479 21,200 2,357 Climbing FlightAware
11:12PM 41.7660 -86.7180 89° East 420 483 22,800 2,169 Climbing FlightAware
11:13PM 41.7670 -86.6130 89° East 426 490 24,200 1,902 Climbing FlightAware
11:14PM 41.7680 -86.5020 89° East 436 502 25,400 1,553 Climbing FlightAware
11:15PM 41.7680 -86.3810 90° East 449 517 26,400 1,412 Climbing FlightAware
11:15PM 41.7770 -86.2680 84° East 457 526 27,400 1,482 Climbing FlightAware
11:16PM 41.7980 -86.1470 77° East 462 532 28,500 1,500 Climbing FlightAware
11:17PM 41.8170 -86.0340 77° East 466 536 29,500 1,769 Climbing FlightAware
11:17PM 41.8350 -85.9300 77° East 460 529 30,800 1,807 Climbing FlightAware
11:18PM 41.8570 -85.8010 77° East 460 529 32,000 1,448 Climbing FlightAware
11:19PM 41.8760 -85.6870 77° East 460 529 32,900 1,373 Climbing FlightAware
11:19PM 41.8940 -85.5760 78° East 458 527 33,900 1,500 Climbing FlightAware
11:20PM 41.9150 -85.4530 77° East 453 521 35,000 786 Climbing FlightAware
11:21PM 41.9330 -85.3430 78° East 456 525 35,000 425 Level FlightAware
11:22PM 41.9510 -85.1400 83° East 460 529 35,800 716 Climbing FlightAware
11:23PM 41.9510 -85.0350 90° East 460 529 36,300 900 Climbing FlightAware
11:23PM 41.9500 -84.9150 91° East 456 525 37,000 462 Climbing FlightAware
11:24PM 41.9490 -84.7790 91° East 452 520 37,000  Level FlightAware
11:25PM 41.9490 -84.6840 90° East 452 520 37,000  Level FlightAware
11:25PM 41.9480 -84.5450 91° East 452 520 37,000  Level FlightAware
11:26PM 41.9470 -84.4230 91° East 447 514 37,000  Level FlightAware
11:27PM 41.9460 -84.3150 91° East 444 511 37,000  Level FlightAware
11:28PM 41.9450 -84.2000 91° East 444 511 37,000  Level FlightAware
11:29PM 41.9500 -84.0500 87° East 444 511 37,000  Level FlightAware
11:29PM 41.9640 -83.9370 81° East 443 510 37,000  Level FlightAware
11:30PM 41.9780 -83.8210 81° East 444 511 37,000  Level FlightAware
11:31PM 41.9930 -83.6960 81° East 444 511 37,000  Level FlightAware
11:31PM 42.0050 -83.5950 81° East 444 511 37,000  Level FlightAware
11:32PM 42.0200 -83.4740 80° East 442 509 37,000  Level FlightAware
11:33PM 42.0330 -83.3620 81° East 440 506 37,000  Level FlightAware
11:33PM 42.0470 -83.2420 81° East 440 506 37,000  Level FlightAware
11:34PM 42.0600 -83.1350 81° East 439 505 37,000  Level FlightAware
11:35PM 42.0730 -83.0160 82° East 438 504 37,000  Level FlightAware
11:36PM 42.0850 -82.9130 81° East 435 501 37,000  Level FlightAware
11:36PM 42.0970 -82.7930 82° East 431 496 37,000  Level FlightAware
11:37PM 42.1080 -82.6990 81° East 429 494 37,000  Level FlightAware
11:38PM 42.1230 -82.5710 81° East 428 493 37,000  Level FlightAware
11:38PM 42.1350 -82.4670 81° East 431 496 37,000  Level FlightAware
11:39PM 42.1470 -82.3590 81° East 431 496 37,000  Level FlightAware
11:40PM 42.1600 -82.2380 82° East 430 495 37,000  Level FlightAware
11:40PM 42.1710 -82.1310 82° East 430 495 37,000  Level FlightAware
11:41PM 42.1830 -82.0190 82° East 434 499 37,000  Level FlightAware
11:42PM 42.1930 -81.9200 82° East 436 502 37,000  Level FlightAware
11:42PM 42.2060 -81.8030 81° East 438 504 37,000  Level FlightAware
11:43PM 42.2180 -81.6830 82° East 444 511 37,000  Level FlightAware
11:44PM 42.2300 -81.5600 82° East 447 514 37,000  Level FlightAware
11:45PM 42.2420 -81.4440 82° East 447 514 37,000  Level FlightAware
11:45PM 42.2540 -81.3280 82° East 443 510 37,000  Level FlightAware
11:46PM 42.2650 -81.2140 83° East 442 509 37,000  Level FlightAware
11:47PM 42.2760 -81.1010 82° East 442 509 37,000  Level FlightAware
11:47PM 42.2870 -80.9840 83° East 441 507 37,000  Level FlightAware
11:48PM 42.2980 -80.8750 82° East 441 507 37,000  Level FlightAware
11:49PM 42.3090 -80.7510 83° East 440 506 37,000  Level FlightAware
11:50PM 42.3200 -80.6410 82° East 440 506 37,000  Level FlightAware
11:50PM 42.3310 -80.5220 83° East 439 505 37,000  Level FlightAware
11:51PM 42.3410 -80.4120 83° East 439 505 37,000  Level FlightAware
11:52PM 42.3510 -80.2990 83° East 438 504 37,000  Level FlightAware
11:52PM 42.3620 -80.1820 83° East 438 504 37,000  Level FlightAware
11:53PM 42.3710 -80.0750 83° East 438 504 37,000  Level FlightAware
11:54PM 42.3810 -79.9560 83° East 440 506 37,000  Level FlightAware
11:54PM 42.3910 -79.8470 83° East 441 507 37,000  Level FlightAware
11:55PM 42.4000 -79.7370 84° East 443 510 37,000  Level FlightAware
11:56PM 42.4110 -79.6100 83° East 445 512 37,000  Level FlightAware
11:57PM 42.4210 -79.4940 83° East 448 516 37,000  Level FlightAware
11:57PM 42.4310 -79.3730 84° East 448 516 37,000  Level FlightAware
11:58PM 42.4390 -79.2640 84° East 449 517 37,000  Level FlightAware
11:59PM 42.4500 -79.1360 83° East 447 514 37,000  Level FlightAware
11:59PM 42.4580 -79.0290 84° East 446 513 37,000  Level FlightAware
12:00AM 42.4670 -78.9160 84° East 446 513 37,000  Level FlightAware
12:01AM 42.4760 -78.8030 84° East 446 513 37,000  Level FlightAware
12:01AM 42.4860 -78.6700 84° East 447 514 37,000  Level FlightAware
12:02AM 42.4950 -78.5530 84° East 447 514 37,000  Level FlightAware
12:03AM 42.5030 -78.4480 84° East 448 516 37,000  Level FlightAware
12:04AM 42.5110 -78.3300 85° East 449 517 37,000  Level FlightAware
12:04AM 42.5200 -78.2110 84° East 450 518 37,000  Level FlightAware
12:05AM 42.5280 -78.0920 85° East 451 519 37,000  Level FlightAware
12:06AM 42.5350 -77.9890 85° East 451 519 37,000  Level FlightAware
12:06AM 42.5430 -77.8690 85° East 454 522 37,000  Level FlightAware
12:07AM 42.5520 -77.7390 85° East 455 524 37,000 -205 Level FlightAware
12:08AM 42.5610 -77.6130 84° East 455 524 36,700 -714 Descending FlightAware
12:08AM 42.5680 -77.5010 85° East 459 528 36,000 -951 Descending FlightAware
12:09AM 42.5760 -77.3790 85° East 464 534 35,400 -907 Descending FlightAware
12:10AM 42.5840 -77.2500 85° East 466 536 34,700 -988 Descending FlightAware
12:11AM 42.5910 -77.1360 85° East 466 536 34,000 -1,000 Descending FlightAware
12:11AM 42.5990 -77.0060 85° East 471 542 33,300 -966 Descending FlightAware
12:12AM 42.6070 -76.8750 85° East 476 548 32,600 -900 Descending FlightAware
12:13AM 42.6170 -76.7710 83° East 479 551 32,100 -951 Descending FlightAware
12:13AM 42.6500 -76.6410 71° East 475 547 31,300 -1,091 Descending FlightAware
12:14AM 42.6810 -76.5230 70° East 463 533 30,500 -1,047 Descending FlightAware
12:15AM 42.7110 -76.4050 71° East 457 526 29,800 -1,024 Descending FlightAware
12:15AM 42.7370 -76.3010 71° East 451 519 29,100 -585 Descending FlightAware
12:16AM 42.7670 -76.1830 71° East 451 519 29,000 -71 Descending FlightAware
12:17AM 42.7850 -76.0730 77° East 449 517 29,000  Level FlightAware
12:17AM 42.7990 -75.9600 80° East 449 517 29,000 -1,091 Level FlightAware
12:18AM 42.8150 -75.8320 80° East 439 505 27,400 -2,114 Descending FlightAware
12:19AM 42.8270 -75.7220 82° East 432 497 25,900 -2,308 Descending FlightAware
12:20AM 42.8390 -75.6190 81° East 425 489 24,400 -2,214 Descending FlightAware
12:20AM 42.8520 -75.5000 81° East 418 481 22,800 -2,182 Descending FlightAware
12:21AM 42.8640 -75.3910 81° East 413 475 21,200 -2,233 Descending FlightAware
12:22AM 42.8780 -75.2780 80° East 406 467 19,600 -1,829 Descending FlightAware
12:22AM 42.8860 -75.1830 83° East 395 455 18,700 -2,000 Descending FlightAware
12:23AM 42.8740 -75.0710 98° East 399 459 16,800 -2,093 Descending FlightAware
12:24AM 42.8640 -74.9710 98° East 386 444 15,700 -1,500 Descending FlightAware
12:25AM 42.8550 -74.8700 97° East 363 418 14,700 -1,429 Descending FlightAware
12:25AM 42.8470 -74.7830 97° East 352 405 13,700 -1,769 Descending FlightAware
12:26AM 42.8390 -74.6970 97° East 350 403 12,400 -1,260 Descending FlightAware
12:27AM 42.8280 -74.5760 97° East 352 405 11,600 -485 Descending FlightAware
12:28AM 42.8220 -74.5070 97° East 352 405 11,600 -973 Level FlightAware
12:28AM 42.8103 -74.4242 97° East 311 358 10,400 -1,658 Descending Boston Center
12:29AM 42.7967 -74.3728 110° East 316 364 9,500 -1,394 Descending Boston Center
12:30AM 42.7653 -74.2472 109° East 316 364 8,100 -1,550 Descending Boston Center
12:31AM 42.7358 -74.1306 109° East 306 352 6,400 -1,488 Descending Boston Center
12:32AM 42.7122 -74.0339 108° East 306 352 5,100 -1,400 Descending Boston Center
12:33AM 42.6886 -73.9314 107° East 301 346 3,600 -1,261 Descending Boston Center
12:34AM 42.6669 -73.8378 107° East 278 320 2,600 -750 Descending Boston Center
12:35AM 42.6639 -73.7531 93° East 262 302 2,100 -500 Descending Boston Center

Login

Don't have an account? Register now (free) for customized features, flight alerts, and more!